createdAt,value
2019-02-09T00:00:46.934Z,21.02
2019-02-09T00:01:46.938Z,20.99
2019-02-09T00:02:46.945Z,21.04
2019-02-09T00:03:46.949Z,21.02
2019-02-09T00:04:46.976Z,21.05
2019-02-09T00:05:46.962Z,21.02
2019-02-09T00:06:46.967Z,21.02
2019-02-09T00:07:46.972Z,21.02
2019-02-09T00:08:46.977Z,21.02
2019-02-09T00:09:46.984Z,20.95
2019-02-09T00:10:46.988Z,20.99
2019-02-09T00:11:46.994Z,20.98
2019-02-09T00:12:47.001Z,21.01
2019-02-09T00:13:47.005Z,20.98
2019-02-09T00:14:47.013Z,21.01
2019-02-09T00:15:47.016Z,21.01
2019-02-09T00:16:47.023Z,20.98
2019-02-09T00:17:47.027Z,21.11
2019-02-09T00:18:47.031Z,21.13
2019-02-09T00:19:47.036Z,21.08
2019-02-09T00:20:47.047Z,20.98
2019-02-09T00:21:47.048Z,20.98
2019-02-09T00:22:47.054Z,20.98
2019-02-09T00:23:47.059Z,21.05
2019-02-09T00:24:47.066Z,21.01
2019-02-09T00:25:47.071Z,21.09
2019-02-09T00:26:47.077Z,20.99
2019-02-09T00:27:47.617Z,20.95
2019-02-09T00:28:47.090Z,20.95
2019-02-09T00:29:47.093Z,20.98
2019-02-09T00:30:47.099Z,21.02
2019-02-09T00:31:47.102Z,21.02
2019-02-09T00:32:47.136Z,21.02
2019-02-09T00:33:47.114Z,20.99
2019-02-09T00:34:47.118Z,20.99
2019-02-09T00:35:47.124Z,21.06
2019-02-09T00:36:47.131Z,20.98
2019-02-09T00:37:47.135Z,21.11
2019-02-09T00:38:47.141Z,20.98
2019-02-09T00:39:47.156Z,20.98
2019-02-09T00:40:47.152Z,21.05
2019-02-09T00:41:47.158Z,21.04
2019-02-09T00:42:47.164Z,20.98
2019-02-09T00:43:47.168Z,20.96
2019-02-09T00:44:47.174Z,21.02
2019-02-09T00:45:47.213Z,20.96
2019-02-09T00:46:47.187Z,21.04
2019-02-09T00:47:47.188Z,21.02
2019-02-09T00:48:47.196Z,21.01
2019-02-09T00:49:47.200Z,20.98
2019-02-09T00:50:47.208Z,20.99
2019-02-09T00:51:47.212Z,21.05
2019-02-09T00:52:47.217Z,20.98
2019-02-09T00:53:48.175Z,20.98
2019-02-09T00:54:47.230Z,21.02
2019-02-09T00:55:47.235Z,20.98
2019-02-09T00:56:47.242Z,20.98
2019-02-09T00:57:47.244Z,20.95
2019-02-09T00:58:47.264Z,21.02
2019-02-09T00:59:54.063Z,20.95
2019-02-09T01:00:47.279Z,21.01
2019-02-09T01:01:47.267Z,20.95
2019-02-09T01:02:47.273Z,21.01
2019-02-09T01:03:47.292Z,21.02
2019-02-09T01:04:47.282Z,20.95
2019-02-09T01:05:47.289Z,21.02
2019-02-09T01:06:47.296Z,21.06
2019-02-09T01:07:47.300Z,21.08
2019-02-09T01:08:47.305Z,20.95
2019-02-09T01:09:47.312Z,21.06
2019-02-09T01:10:47.315Z,21.02
2019-02-09T01:11:47.328Z,20.95
2019-02-09T01:12:47.327Z,21.02
2019-02-09T01:13:47.335Z,20.98
2019-02-09T01:14:47.338Z,20.99
2019-02-09T01:15:47.345Z,21.02
2019-02-09T01:16:47.349Z,21.06
2019-02-09T01:17:47.356Z,20.95
2019-02-09T01:18:47.358Z,20.99
2019-02-09T01:19:47.363Z,21.11
2019-02-09T01:20:47.370Z,21.02
2019-02-09T01:21:47.375Z,20.98
2019-02-09T01:22:47.382Z,20.98
2019-02-09T01:23:47.386Z,20.98
2019-02-09T01:24:47.393Z,21.02
2019-02-09T01:25:47.396Z,20.99
2019-02-09T01:26:47.403Z,21.01
2019-02-09T01:27:47.408Z,21.05
2019-02-09T01:28:47.413Z,21.01
2019-02-09T01:29:47.420Z,20.95
2019-02-09T01:30:47.423Z,20.98
2019-02-09T01:31:47.434Z,21.05
2019-02-09T01:32:47.437Z,21.02
2019-02-09T01:33:47.447Z,20.91
2019-02-09T01:34:47.445Z,21.01
2019-02-09T01:35:47.450Z,20.95
2019-02-09T01:36:47.457Z,21.05
2019-02-09T01:37:47.462Z,20.95
2019-02-09T01:38:47.467Z,21.02
2019-02-09T01:39:47.471Z,20.98
2019-02-09T01:40:47.477Z,21.01
2019-02-09T01:41:47.483Z,21.02
2019-02-09T01:42:47.490Z,21.05
2019-02-09T01:43:47.493Z,20.89
2019-02-09T01:44:47.505Z,21.04
2019-02-09T01:45:47.504Z,21.05
2019-02-09T01:46:47.513Z,20.91
2019-02-09T01:47:47.517Z,20.95
2019-02-09T01:48:47.537Z,20.98
2019-02-09T01:49:47.530Z,21.01
2019-02-09T01:50:47.533Z,21.02
2019-02-09T01:51:47.539Z,21.02
2019-02-09T01:52:47.547Z,20.95
2019-02-09T01:53:47.549Z,20.99
2019-02-09T01:54:47.555Z,20.99
2019-02-09T01:55:47.560Z,21.02
2019-02-09T01:56:47.565Z,20.95
2019-02-09T01:57:47.571Z,20.99
2019-02-09T01:58:47.575Z,21.06
2019-02-09T01:59:47.594Z,21.02
2019-02-09T02:00:47.600Z,20.96
2019-02-09T02:01:47.591Z,21.04
2019-02-09T02:02:47.597Z,20.83
2019-02-09T02:03:47.603Z,20.96
2019-02-09T02:04:47.607Z,21.05
2019-02-09T02:05:47.615Z,21.02
2019-02-09T02:06:47.619Z,20.96
2019-02-09T02:07:47.625Z,20.93
2019-02-09T02:08:47.629Z,20.98
2019-02-09T02:09:47.636Z,21.06
2019-02-09T02:10:47.640Z,20.87
2019-02-09T02:11:47.646Z,21.02
2019-02-09T02:12:47.652Z,21.04
2019-02-09T02:13:47.658Z,20.99
2019-02-09T02:14:47.661Z,21.02
2019-02-09T02:15:47.670Z,20.99
2019-02-09T02:16:47.672Z,21.01
2019-02-09T02:17:47.681Z,20.93
2019-02-09T02:18:47.689Z,21.04
2019-02-09T02:19:47.691Z,21.05
2019-02-09T02:20:47.695Z,20.99
2019-02-09T02:21:47.701Z,21.04
2019-02-09T02:22:47.733Z,21.05
2019-02-09T02:23:47.716Z,20.99
2019-02-09T02:24:47.719Z,20.95
2019-02-09T02:25:47.722Z,21.01
2019-02-09T02:26:47.729Z,21.01
2019-02-09T02:27:47.734Z,20.99
2019-02-09T02:28:47.738Z,21.01
2019-02-09T02:29:47.744Z,20.96
2019-02-09T02:30:47.750Z,20.98
2019-02-09T02:31:47.753Z,21.02
2019-02-09T02:32:47.761Z,21.01
2019-02-09T02:33:47.793Z,21.05
2019-02-09T02:34:47.771Z,20.99
2019-02-09T02:35:47.783Z,20.96
2019-02-09T02:36:47.781Z,20.99
2019-02-09T02:37:47.786Z,20.99
2019-02-09T02:38:47.793Z,21.02
2019-02-09T02:39:47.796Z,20.93
2019-02-09T02:40:47.803Z,21.05
2019-02-09T02:41:47.809Z,21.01
2019-02-09T02:42:47.814Z,20.99
2019-02-09T02:43:47.819Z,20.96
2019-02-09T02:44:47.823Z,21.06
2019-02-09T02:45:47.831Z,21.05
2019-02-09T02:46:47.836Z,21.04
2019-02-09T02:47:47.847Z,20.98
2019-02-09T02:48:47.849Z,20.90
2019-02-09T02:49:47.853Z,21.04
2019-02-09T02:50:47.863Z,21.05
2019-02-09T02:51:47.870Z,21.01
2019-02-09T02:52:47.869Z,20.98
2019-02-09T02:53:47.875Z,20.89
2019-02-09T02:54:47.879Z,20.99
2019-02-09T02:55:47.883Z,21.04
2019-02-09T02:56:47.902Z,21.01
2019-02-09T02:57:47.896Z,20.99
2019-02-09T02:58:47.899Z,21.05
2019-02-09T02:59:47.907Z,21.02
2019-02-09T03:00:47.911Z,21.06
2019-02-09T03:01:47.917Z,21.02
2019-02-09T03:02:47.926Z,21.05
2019-02-09T03:03:47.935Z,21.02
2019-02-09T03:04:47.935Z,21.01
2019-02-09T03:05:47.947Z,20.90
2019-02-09T03:06:47.995Z,20.99
2019-02-09T03:07:47.948Z,20.99
2019-02-09T03:08:47.953Z,20.93
2019-02-09T03:09:47.961Z,20.95
2019-02-09T03:10:47.967Z,21.02
2019-02-09T03:11:48.149Z,21.05
2019-02-09T03:12:47.984Z,21.02
2019-02-09T03:13:47.980Z,20.96
2019-02-09T03:14:47.988Z,20.95
2019-02-09T03:15:47.990Z,20.99
2019-02-09T03:16:48.007Z,20.96
2019-02-09T03:17:48.004Z,20.99
2019-02-09T03:18:48.010Z,20.98
2019-02-09T03:19:48.013Z,21.02
2019-02-09T03:20:48.018Z,20.98
2019-02-09T03:21:48.024Z,21.02
2019-02-09T03:22:48.029Z,20.99
2019-02-09T03:23:48.037Z,21.04
2019-02-09T03:24:48.039Z,20.96
2019-02-09T03:25:48.046Z,21.02
2019-02-09T03:26:48.051Z,20.86
2019-02-09T03:27:48.056Z,20.98
2019-02-09T03:28:48.061Z,21.05
2019-02-09T03:29:48.068Z,20.87
2019-02-09T03:30:49.136Z,21.01
2019-02-09T03:31:48.079Z,20.89
2019-02-09T03:32:48.085Z,20.93
2019-02-09T03:33:48.093Z,21.02
2019-02-09T03:34:48.145Z,21.04
2019-02-09T03:35:48.099Z,21.01
2019-02-09T03:36:48.105Z,21.02
2019-02-09T03:37:48.110Z,21.06
2019-02-09T03:38:48.118Z,21.04
2019-02-09T03:39:48.123Z,20.96
2019-02-09T03:40:48.126Z,20.89
2019-02-09T03:41:48.131Z,20.91
2019-02-09T03:42:48.137Z,20.99
2019-02-09T03:43:48.142Z,20.90
2019-02-09T03:44:48.151Z,20.96
2019-02-09T03:45:48.153Z,20.91
2019-02-09T03:46:48.158Z,21.04
2019-02-09T03:47:48.169Z,21.05
2019-02-09T03:48:48.179Z,21.01
2019-02-09T03:49:48.175Z,20.96
2019-02-09T03:50:48.182Z,21.04
2019-02-09T03:51:48.184Z,21.02
2019-02-09T03:52:48.195Z,21.04
2019-02-09T03:53:48.197Z,21.05
2019-02-09T03:54:48.201Z,20.99
2019-02-09T03:55:48.207Z,21.01
2019-02-09T03:56:48.213Z,21.05
2019-02-09T03:57:48.217Z,21.01
2019-02-09T03:58:48.225Z,20.98
2019-02-09T03:59:48.232Z,20.99
2019-02-09T04:00:55.192Z,20.98
2019-02-09T04:01:48.242Z,21.01
2019-02-09T04:02:48.245Z,20.98
2019-02-09T04:03:48.250Z,20.99
2019-02-09T04:04:48.255Z,20.93
2019-02-09T04:05:48.262Z,20.91
2019-02-09T04:06:48.266Z,21.01
2019-02-09T04:07:48.285Z,20.99
2019-02-09T04:08:48.277Z,21.01
2019-02-09T04:09:48.283Z,20.90
2019-02-09T04:10:48.287Z,21.01
2019-02-09T04:11:48.292Z,20.98
2019-02-09T04:12:48.298Z,20.96
2019-02-09T04:13:48.303Z,20.99
2019-02-09T04:14:48.308Z,20.99
2019-02-09T04:15:48.312Z,21.06
2019-02-09T04:16:48.340Z,20.95
2019-02-09T04:17:48.324Z,20.98
2019-02-09T04:18:48.333Z,20.95
2019-02-09T04:19:48.335Z,20.93
2019-02-09T04:20:48.342Z,20.99
2019-02-09T04:21:48.347Z,20.87
2019-02-09T04:22:48.353Z,21.02
2019-02-09T04:23:48.356Z,20.90
2019-02-09T04:24:48.364Z,20.99
2019-02-09T04:25:48.368Z,20.87
2019-02-09T04:26:48.373Z,20.86
2019-02-09T04:27:48.379Z,20.98
2019-02-09T04:28:48.384Z,20.93
2019-02-09T04:29:48.390Z,20.98
2019-02-09T04:30:48.399Z,21.01
2019-02-09T04:31:48.403Z,20.93
2019-02-09T04:32:48.405Z,20.99
2019-02-09T04:33:48.410Z,20.99
2019-02-09T04:34:48.499Z,20.89
2019-02-09T04:35:48.421Z,21.01
2019-02-09T04:36:48.431Z,20.95
2019-02-09T04:37:48.433Z,20.91
2019-02-09T04:38:48.440Z,20.96
2019-02-09T04:39:48.445Z,20.93
2019-02-09T04:40:48.447Z,20.89
2019-02-09T04:41:48.454Z,20.95
2019-02-09T04:42:48.460Z,20.89
2019-02-09T04:43:48.465Z,20.99
2019-02-09T04:44:48.470Z,20.96
2019-02-09T04:45:48.480Z,21.02
2019-02-09T04:46:48.482Z,20.96
2019-02-09T04:47:48.486Z,20.90
2019-02-09T04:48:48.491Z,21.01
2019-02-09T04:49:48.496Z,21.01
2019-02-09T04:50:48.503Z,21.05
2019-02-09T04:51:48.507Z,20.96
2019-02-09T04:52:48.513Z,20.96
2019-02-09T04:53:48.523Z,20.93
2019-02-09T04:54:48.525Z,20.90
2019-02-09T04:55:48.529Z,20.93
2019-02-09T04:56:48.533Z,20.99
2019-02-09T04:57:48.541Z,20.91
2019-02-09T04:58:48.548Z,20.91
2019-02-09T04:59:48.551Z,20.90
2019-02-09T05:00:48.557Z,20.93
2019-02-09T05:01:48.561Z,20.95
2019-02-09T05:02:48.569Z,21.01
2019-02-09T05:03:48.571Z,20.90
2019-02-09T05:04:48.578Z,20.86
2019-02-09T05:05:48.647Z,20.98
2019-02-09T05:06:48.587Z,20.96
2019-02-09T05:07:48.597Z,20.99
2019-02-09T05:08:48.597Z,20.93
2019-02-09T05:09:48.605Z,20.91
2019-02-09T05:10:48.609Z,20.93
2019-02-09T05:11:48.613Z,20.93
2019-02-09T05:12:48.622Z,20.99
2019-02-09T05:13:48.624Z,20.99
2019-02-09T05:14:48.634Z,20.90
2019-02-09T05:15:48.636Z,20.91
2019-02-09T05:16:48.641Z,20.96
2019-02-09T05:17:48.647Z,20.91
2019-02-09T05:18:48.652Z,20.89
2019-02-09T05:19:48.657Z,20.90
2019-02-09T05:20:48.661Z,20.91
2019-02-09T05:21:48.675Z,20.96
2019-02-09T05:22:48.674Z,20.96
2019-02-09T05:23:48.682Z,20.90
2019-02-09T05:24:48.685Z,20.93
2019-02-09T05:25:48.690Z,20.91
2019-02-09T05:26:48.696Z,20.91
2019-02-09T05:27:48.700Z,21.01
2019-02-09T05:28:48.707Z,20.95
2019-02-09T05:29:48.712Z,20.96
2019-02-09T05:30:48.718Z,20.89
2019-02-09T05:31:48.736Z,20.89
2019-02-09T05:32:48.728Z,20.83
2019-02-09T05:33:48.732Z,20.87
2019-02-09T05:34:48.738Z,20.87
2019-02-09T05:35:48.743Z,21.01
2019-02-09T05:36:48.748Z,20.87
2019-02-09T05:37:48.753Z,20.98
2019-02-09T05:38:48.765Z,20.95
2019-02-09T05:39:48.811Z,20.90
2019-02-09T05:40:48.783Z,20.96
2019-02-09T05:41:48.776Z,20.91
2019-02-09T05:42:48.779Z,20.91
2019-02-09T05:43:48.785Z,20.91
2019-02-09T05:44:48.790Z,20.93
2019-02-09T05:45:48.799Z,20.89
2019-02-09T05:46:48.801Z,20.93
2019-02-09T05:47:48.807Z,20.96
2019-02-09T05:48:48.813Z,21.01
2019-02-09T05:49:48.819Z,20.96
2019-02-09T05:50:48.829Z,20.96
2019-02-09T05:51:48.834Z,20.93
2019-02-09T05:52:48.839Z,20.96
2019-02-09T05:53:48.842Z,20.90
2019-02-09T05:54:48.844Z,20.89
2019-02-09T05:55:48.850Z,20.91
2019-02-09T05:56:48.855Z,20.90
2019-02-09T05:57:48.861Z,20.93
2019-02-09T05:58:48.872Z,20.91
2019-02-09T05:59:48.873Z,20.93
2019-02-09T06:00:48.882Z,20.84
2019-02-09T06:01:48.884Z,20.91
2019-02-09T06:02:48.940Z,20.93
2019-02-09T06:03:48.894Z,20.99
2019-02-09T06:04:48.898Z,21.02
2019-02-09T06:05:48.903Z,20.99
2019-02-09T06:06:48.908Z,20.93
2019-02-09T06:07:48.919Z,20.91
2019-02-09T06:08:48.921Z,20.91
2019-02-09T06:09:48.926Z,20.89
2019-02-09T06:10:48.932Z,20.90
2019-02-09T06:11:48.952Z,21.01
2019-02-09T06:12:48.941Z,20.95
2019-02-09T06:13:48.958Z,20.87
2019-02-09T06:14:48.952Z,20.89
2019-02-09T06:15:48.957Z,20.90
2019-02-09T06:16:48.963Z,20.91
2019-02-09T06:17:48.967Z,20.90
2019-02-09T06:18:48.973Z,20.96
2019-02-09T06:19:48.977Z,21.04
2019-02-09T06:20:48.984Z,20.93
2019-02-09T06:21:48.988Z,20.93
2019-02-09T06:22:48.995Z,20.93
2019-02-09T06:23:49.001Z,20.95
2019-02-09T06:24:49.006Z,20.93
2019-02-09T06:25:49.009Z,21.06
2019-02-09T06:26:49.017Z,20.98
2019-02-09T06:27:49.039Z,20.98
2019-02-09T06:28:49.025Z,21.02
2019-02-09T06:29:49.032Z,20.99
2019-02-09T06:30:49.036Z,20.90
2019-02-09T06:31:49.041Z,20.95
2019-02-09T06:32:49.049Z,21.01
2019-02-09T06:33:49.054Z,21.01
2019-02-09T06:34:49.059Z,21.02
2019-02-09T06:35:49.062Z,21.04
2019-02-09T06:36:49.073Z,20.99
2019-02-09T06:37:49.075Z,21.04
2019-02-09T06:38:49.090Z,21.04
2019-02-09T06:39:49.085Z,20.96
2019-02-09T06:40:49.093Z,21.04
2019-02-09T06:41:49.097Z,20.87
2019-02-09T06:42:49.101Z,20.99
2019-02-09T06:43:49.108Z,20.98
2019-02-09T06:44:49.114Z,20.99
2019-02-09T06:45:49.126Z,20.99
2019-02-09T06:46:49.147Z,21.01
2019-02-09T06:47:49.127Z,21.02
2019-02-09T06:48:49.135Z,21.13
2019-02-09T06:49:49.139Z,20.98
2019-02-09T06:50:49.143Z,21.09
2019-02-09T06:51:49.149Z,21.09
2019-02-09T06:52:49.156Z,21.11
2019-02-09T06:53:49.162Z,21.05
2019-02-09T06:54:49.168Z,20.99
2019-02-09T06:55:49.171Z,20.98
2019-02-09T06:56:49.177Z,21.08
2019-02-09T06:57:49.182Z,21.08
2019-02-09T06:58:49.188Z,21.19
2019-02-09T06:59:49.192Z,21.20
2019-02-09T07:00:49.198Z,21.17
2019-02-09T07:01:49.204Z,21.23
2019-02-09T07:02:49.209Z,21.13
2019-02-09T07:03:49.222Z,21.13
2019-02-09T07:04:49.219Z,21.26
2019-02-09T07:05:49.225Z,21.20
2019-02-09T07:06:49.231Z,21.29
2019-02-09T07:07:49.238Z,21.24
2019-02-09T07:08:49.241Z,21.30
2019-02-09T07:09:49.246Z,21.21
2019-02-09T07:10:49.252Z,21.21
2019-02-09T07:11:49.258Z,21.11
2019-02-09T07:12:49.278Z,21.11
2019-02-09T07:13:49.267Z,21.16
2019-02-09T07:14:49.274Z,21.21
2019-02-09T07:15:49.279Z,21.16
2019-02-09T07:16:49.284Z,21.13
2019-02-09T07:17:49.291Z,21.19
2019-02-09T07:18:49.295Z,21.21
2019-02-09T07:19:49.301Z,21.21
2019-02-09T07:20:49.306Z,21.29
2019-02-09T07:21:49.311Z,21.32
2019-02-09T07:22:49.318Z,21.26
2019-02-09T07:23:49.324Z,21.26
2019-02-09T07:24:49.538Z,21.16
2019-02-09T07:25:49.337Z,21.24
2019-02-09T07:26:49.339Z,21.23
2019-02-09T07:27:49.363Z,21.20
2019-02-09T07:28:49.351Z,21.34
2019-02-09T07:29:49.355Z,21.16
2019-02-09T07:30:49.362Z,21.26
2019-02-09T07:31:56.214Z,21.34
2019-02-09T07:32:49.372Z,21.19
2019-02-09T07:33:49.378Z,21.29
2019-02-09T07:34:49.385Z,21.13
2019-02-09T07:35:49.388Z,21.21
2019-02-09T07:36:49.394Z,21.29
2019-02-09T07:37:49.401Z,21.24
2019-02-09T07:38:49.409Z,21.17
2019-02-09T07:39:49.409Z,21.26
2019-02-09T07:40:49.625Z,21.24
2019-02-09T07:41:49.422Z,21.29
2019-02-09T07:42:49.430Z,21.13
2019-02-09T07:43:49.434Z,21.24
2019-02-09T07:44:49.437Z,21.27
2019-02-09T07:45:49.443Z,21.14
2019-02-09T07:46:49.450Z,21.19
2019-02-09T07:47:49.454Z,21.23
2019-02-09T07:48:49.461Z,21.16
2019-02-09T07:49:49.465Z,21.23
2019-02-09T07:50:49.470Z,21.23
2019-02-09T07:51:49.477Z,21.26
2019-02-09T07:52:49.487Z,21.26
2019-02-09T07:53:49.495Z,21.20
2019-02-09T07:54:49.494Z,21.24
2019-02-09T07:55:49.497Z,21.21
2019-02-09T07:56:49.503Z,21.29
2019-02-09T07:57:49.509Z,21.24
2019-02-09T07:58:49.514Z,21.23
2019-02-09T07:59:49.518Z,21.20
2019-02-09T08:00:49.525Z,21.21
2019-02-09T08:01:49.531Z,21.16
2019-02-09T08:02:49.536Z,21.29
2019-02-09T08:03:49.542Z,21.24
2019-02-09T08:04:49.546Z,21.23
2019-02-09T08:05:49.551Z,21.19
2019-02-09T08:06:49.560Z,21.23
2019-02-09T08:07:49.563Z,21.16
2019-02-09T08:08:49.569Z,21.19
2019-02-09T08:09:49.574Z,21.19
2019-02-09T08:10:49.579Z,21.26
2019-02-09T08:11:49.585Z,21.21
2019-02-09T08:12:49.590Z,21.29
2019-02-09T08:13:49.596Z,21.17
2019-02-09T08:14:49.603Z,21.23
2019-02-09T08:15:49.661Z,21.23
2019-02-09T08:16:49.613Z,21.20
2019-02-09T08:17:49.618Z,21.19
2019-02-09T08:18:49.623Z,21.29
2019-02-09T08:19:49.627Z,21.26
2019-02-09T08:20:49.637Z,21.20
2019-02-09T08:21:49.642Z,21.23
2019-02-09T08:22:49.648Z,21.20
2019-02-09T08:23:49.650Z,21.29
2019-02-09T08:24:49.659Z,21.16
2019-02-09T08:25:49.662Z,21.24
2019-02-09T08:26:49.668Z,21.19
2019-02-09T08:27:49.671Z,21.19
2019-02-09T08:28:49.677Z,21.27
2019-02-09T08:29:49.684Z,21.13
2019-02-09T08:30:49.689Z,21.21
2019-02-09T08:31:49.739Z,21.27
2019-02-09T08:32:49.700Z,21.27
2019-02-09T08:33:49.705Z,21.21
2019-02-09T08:34:49.710Z,21.20
2019-02-09T08:35:49.715Z,21.17
2019-02-09T08:36:49.722Z,21.17
2019-02-09T08:37:49.727Z,21.14
2019-02-09T08:38:49.736Z,21.19
2019-02-09T08:39:49.738Z,21.19
2019-02-09T08:40:49.745Z,21.30
2019-02-09T08:41:49.749Z,21.23
2019-02-09T08:42:49.754Z,21.23
2019-02-09T08:43:49.760Z,21.24
2019-02-09T08:44:49.769Z,21.32
2019-02-09T08:45:49.771Z,21.26
2019-02-09T08:46:49.778Z,21.24
2019-02-09T08:47:49.782Z,21.24
2019-02-09T08:48:49.793Z,21.21
2019-02-09T08:49:49.794Z,21.19
2019-02-09T08:50:49.798Z,21.14
2019-02-09T08:51:49.802Z,21.26
2019-02-09T08:52:49.810Z,21.19
2019-02-09T08:53:49.819Z,21.20
2019-02-09T08:54:49.823Z,21.21
2019-02-09T08:55:49.826Z,21.19
2019-02-09T08:56:49.832Z,21.23
2019-02-09T08:57:49.836Z,21.23
2019-02-09T08:58:49.844Z,21.17
2019-02-09T08:59:49.849Z,21.26
2019-02-09T09:00:49.853Z,21.23
2019-02-09T09:01:49.859Z,21.26
2019-02-09T09:02:49.865Z,21.17
2019-02-09T09:03:49.869Z,21.20
2019-02-09T09:04:49.875Z,21.19
2019-02-09T09:05:49.883Z,21.17
2019-02-09T09:06:49.887Z,21.21
2019-02-09T09:07:49.891Z,21.23
2019-02-09T09:08:49.899Z,21.14
2019-02-09T09:09:49.902Z,21.17
2019-02-09T09:10:49.909Z,21.21
2019-02-09T09:11:49.912Z,21.13
2019-02-09T09:12:49.918Z,21.17
2019-02-09T09:13:49.924Z,21.09
2019-02-09T09:14:49.952Z,21.20
2019-02-09T09:15:49.934Z,21.24
2019-02-09T09:16:49.944Z,21.29
2019-02-09T09:17:49.946Z,21.29
2019-02-09T09:18:49.954Z,21.16
2019-02-09T09:19:49.970Z,21.23
2019-02-09T09:20:49.964Z,21.23
2019-02-09T09:21:49.968Z,21.16
2019-02-09T09:22:49.974Z,21.23
2019-02-09T09:23:49.978Z,21.26
2019-02-09T09:24:49.985Z,21.17
2019-02-09T09:25:49.989Z,21.30
2019-02-09T09:26:49.997Z,21.20
2019-02-09T09:27:50.003Z,21.24
2019-02-09T09:28:50.007Z,21.35
2019-02-09T09:29:50.013Z,21.27
2019-02-09T09:30:50.018Z,21.24
2019-02-09T09:31:50.021Z,21.21
2019-02-09T09:32:50.029Z,21.24
2019-02-09T09:33:50.035Z,21.21
2019-02-09T09:34:50.040Z,21.26
2019-02-09T09:35:50.046Z,21.21
2019-02-09T09:36:50.050Z,21.24
2019-02-09T09:37:50.056Z,21.20
2019-02-09T09:38:50.061Z,21.32
2019-02-09T09:39:50.067Z,21.32
2019-02-09T09:40:50.072Z,21.32
2019-02-09T09:41:50.078Z,21.29
2019-02-09T09:42:50.087Z,21.29
2019-02-09T09:43:50.090Z,21.26
2019-02-09T09:44:50.095Z,21.19
2019-02-09T09:45:50.099Z,21.21
2019-02-09T09:46:50.105Z,21.34
2019-02-09T09:47:50.110Z,21.29
2019-02-09T09:48:50.115Z,21.23
2019-02-09T09:49:50.152Z,21.24
2019-02-09T09:50:50.128Z,21.21
2019-02-09T09:51:50.132Z,21.24
2019-02-09T09:52:50.137Z,21.20
2019-02-09T09:53:50.144Z,21.20
2019-02-09T09:54:50.151Z,21.21
2019-02-09T09:55:50.152Z,21.20
2019-02-09T09:56:50.159Z,21.27
2019-02-09T09:57:50.165Z,21.23
2019-02-09T09:58:50.169Z,21.20
2019-02-09T09:59:50.174Z,21.21
2019-02-09T10:00:50.180Z,21.23
2019-02-09T10:01:50.187Z,21.20
2019-02-09T10:02:50.193Z,21.21
2019-02-09T10:03:50.215Z,21.26
2019-02-09T10:04:50.202Z,21.29
2019-02-09T10:05:50.209Z,21.19
2019-02-09T10:06:50.214Z,21.19
2019-02-09T10:07:50.219Z,21.26
2019-02-09T10:08:50.227Z,21.26
2019-02-09T10:09:50.230Z,21.17
2019-02-09T10:10:50.235Z,21.21
2019-02-09T10:11:50.241Z,21.20
2019-02-09T10:12:50.247Z,21.23
2019-02-09T10:13:50.253Z,21.24
2019-02-09T10:14:50.258Z,21.11
2019-02-09T10:15:50.263Z,21.23
2019-02-09T10:16:50.269Z,21.24
2019-02-09T10:17:50.274Z,21.23
2019-02-09T10:18:50.280Z,21.27
2019-02-09T10:19:50.285Z,21.26
2019-02-09T10:20:50.291Z,21.29
2019-02-09T10:21:50.296Z,21.26
2019-02-09T10:22:50.301Z,21.19
2019-02-09T10:23:50.310Z,21.30
2019-02-09T10:24:50.312Z,21.29
2019-02-09T10:25:50.316Z,21.29
2019-02-09T10:26:50.327Z,21.26
2019-02-09T10:27:50.331Z,21.36
2019-02-09T10:28:50.334Z,21.24
2019-02-09T10:29:50.340Z,21.30
2019-02-09T10:30:50.345Z,21.26
2019-02-09T10:31:50.349Z,21.41
2019-02-09T10:32:50.356Z,21.34
2019-02-09T10:33:50.360Z,21.45
2019-02-09T10:34:50.367Z,21.35
2019-02-09T10:35:50.372Z,21.41
2019-02-09T10:36:50.378Z,21.35
2019-02-09T10:37:50.383Z,21.29
2019-02-09T10:38:50.390Z,21.41
2019-02-09T10:39:50.395Z,21.35
2019-02-09T10:40:50.400Z,21.41
2019-02-09T10:41:50.406Z,21.38
2019-02-09T10:42:50.413Z,21.41
2019-02-09T10:43:50.416Z,21.35
2019-02-09T10:44:50.421Z,21.41
2019-02-09T10:45:50.428Z,21.36
2019-02-09T10:46:50.433Z,21.30
2019-02-09T10:48:23.647Z,21.26
2019-02-09T10:48:50.444Z,21.35
2019-02-09T10:49:50.449Z,21.26
2019-02-09T10:50:50.457Z,21.27
2019-02-09T10:51:50.462Z,21.24
2019-02-09T10:52:50.472Z,21.27
2019-02-09T10:53:50.471Z,21.26
2019-02-09T10:54:50.481Z,21.23
2019-02-09T10:55:50.483Z,21.23
2019-02-09T10:56:50.489Z,21.38
2019-02-09T10:57:50.496Z,21.23
2019-02-09T10:58:50.500Z,21.23
2019-02-09T10:59:50.504Z,21.23
2019-02-09T11:00:50.512Z,21.32
2019-02-09T11:01:50.518Z,21.24
2019-02-09T11:02:52.245Z,21.26
2019-02-09T11:03:50.527Z,21.38
2019-02-09T11:04:50.532Z,21.26
2019-02-09T11:05:50.537Z,21.34
2019-02-09T11:06:50.544Z,21.23
2019-02-09T11:07:50.548Z,21.39
2019-02-09T11:08:50.555Z,21.36
2019-02-09T11:09:50.559Z,21.39
2019-02-09T11:10:50.566Z,21.39
2019-02-09T11:11:50.571Z,21.35
2019-02-09T11:12:50.577Z,21.39
2019-02-09T11:13:50.581Z,21.41
2019-02-09T11:14:50.589Z,21.29
2019-02-09T11:15:50.593Z,21.32
2019-02-09T11:16:50.599Z,21.34
2019-02-09T11:17:50.606Z,21.35
2019-02-09T11:18:50.610Z,21.34
2019-02-09T11:19:50.616Z,21.35
2019-02-09T11:20:50.773Z,21.24
2019-02-09T11:21:50.629Z,21.29
2019-02-09T11:22:50.633Z,21.35
2019-02-09T11:23:50.638Z,21.27
2019-02-09T11:24:50.647Z,21.24
2019-02-09T11:25:50.648Z,21.38
2019-02-09T11:26:50.655Z,21.35
2019-02-09T11:27:50.985Z,21.35
2019-02-09T11:28:50.665Z,21.36
2019-02-09T11:29:50.671Z,21.42
2019-02-09T11:30:50.675Z,21.30
2019-02-09T11:31:50.680Z,21.23
2019-02-09T11:32:50.687Z,21.29
2019-02-09T11:33:50.694Z,21.36
2019-02-09T11:34:50.698Z,21.41
2019-02-09T11:35:50.704Z,21.27
2019-02-09T11:36:50.709Z,21.30
2019-02-09T11:37:50.748Z,21.41
2019-02-09T11:38:50.722Z,21.34
2019-02-09T11:39:50.726Z,21.23
2019-02-09T11:40:50.949Z,21.39
2019-02-09T11:41:50.736Z,21.23
2019-02-09T11:42:50.744Z,21.24
2019-02-09T11:43:50.753Z,21.29
2019-02-09T11:44:50.756Z,21.26
2019-02-09T11:45:50.763Z,21.24
2019-02-09T11:46:50.765Z,21.23
2019-02-09T11:47:50.769Z,21.35
2019-02-09T11:48:50.777Z,21.32
2019-02-09T11:49:50.782Z,21.24
2019-02-09T11:50:50.788Z,21.24
2019-02-09T11:51:50.796Z,21.23
2019-02-09T11:52:50.799Z,21.23
2019-02-09T11:53:50.804Z,21.27
2019-02-09T11:54:50.809Z,21.24
2019-02-09T11:55:50.815Z,21.32
2019-02-09T11:56:50.824Z,21.34
2019-02-09T11:57:50.831Z,21.30
2019-02-09T11:58:50.832Z,21.29
2019-02-09T11:59:51.138Z,21.30
2019-02-09T12:00:50.845Z,21.35
2019-02-09T12:01:51.957Z,21.21
2019-02-09T12:02:50.853Z,21.20
2019-02-09T12:03:50.860Z,21.26
2019-02-09T12:04:50.868Z,21.34
2019-02-09T12:05:50.870Z,21.26
2019-02-09T12:06:50.879Z,21.29
2019-02-09T12:07:50.881Z,21.21
2019-02-09T12:08:50.887Z,21.29
2019-02-09T12:09:50.895Z,21.30
2019-02-09T12:10:50.900Z,21.30
2019-02-09T12:11:50.905Z,21.29
2019-02-09T12:12:50.909Z,21.35
2019-02-09T12:13:55.406Z,21.24
2019-02-09T12:14:50.923Z,21.32
2019-02-09T12:15:50.925Z,21.29
2019-02-09T12:16:50.931Z,21.24
2019-02-09T12:17:50.937Z,21.23
2019-02-09T12:18:50.944Z,21.35
2019-02-09T12:19:50.948Z,21.32
2019-02-09T12:20:50.955Z,21.29
2019-02-09T12:21:50.961Z,21.32
2019-02-09T12:22:50.964Z,21.32
2019-02-09T12:23:50.970Z,21.26
2019-02-09T12:24:50.975Z,21.24
2019-02-09T12:25:50.984Z,21.23
2019-02-09T12:26:50.987Z,21.26
2019-02-09T12:27:50.993Z,21.20
2019-02-09T12:28:50.997Z,21.24
2019-02-09T12:29:51.003Z,21.26
2019-02-09T12:30:51.010Z,21.26
2019-02-09T12:31:51.016Z,21.20
2019-02-09T12:32:51.019Z,21.21
2019-02-09T12:33:51.026Z,21.24
2019-02-09T12:34:51.032Z,21.27
2019-02-09T12:35:51.037Z,21.27
2019-02-09T12:36:51.040Z,21.29
2019-02-09T12:37:51.047Z,21.19
2019-02-09T12:38:51.052Z,21.20
2019-02-09T12:39:51.062Z,21.16
2019-02-09T12:40:51.068Z,21.29
2019-02-09T12:41:51.069Z,21.17
2019-02-09T12:42:51.076Z,21.24
2019-02-09T12:43:51.087Z,21.16
2019-02-09T12:44:51.086Z,21.19
2019-02-09T12:45:51.091Z,21.21
2019-02-09T12:46:51.097Z,21.06
2019-02-09T12:47:51.105Z,21.14
2019-02-09T12:48:51.109Z,21.20
2019-02-09T12:49:51.129Z,21.09
2019-02-09T12:50:51.119Z,21.14
2019-02-09T12:51:51.124Z,21.06
2019-02-09T12:52:51.130Z,21.09